Maersk Murotsu — 3FPA2 — position and weather

sailwx.info

Track history (hours):
 
Tides and Currents Weather Stations Pressure Air Temp Water Temp Dewpoint Dewpoint Depression Visibility Wind Speed Wind Dir Waves Ship Positions

Maersk Murotsu

Last reported at 2018-Apr-16 09:40 UTC. Time now 2018-Apr-22 18:16 UTC.
Position N 01°17' E 103°21'.

Length 183 m; draft 10.6 m.

Type: Tanker. MMSI: 355920000.

Date/timePositionNaut miles runAvg speedWind from/ knotsBaromVisibWave heightAir tempDewpointWater temp
2018-Apr-16 09:40N 01°17' E 103°21'313.6
2018-Apr-16 09:27N 01°15' E 103°23'5 9.6
2018-Apr-16 08:56N 01°10' E 103°21'4 6.8
2018-Apr-16 08:25N 01°09' E 103°17'  
2018-Apr-13 09:52N 01°10' E 103°21'0 0.0
2018-Apr-13 08:40N 01°10' E 103°21'0 0.1
2018-Apr-13 08:28N 01°10' E 103°21'0 0.2
2018-Apr-13 06:30N 01°10' E 103°21'5 8.5
2018-Apr-13 05:58N 01°15' E 103°20'  
2018-Apr-09 03:38N 01°16' E 103°22'213.4
2018-Apr-09 03:27N 01°15' E 103°24'613.5
2018-Apr-09 02:59N 01°13' E 103°30'613.0
2018-Apr-09 02:30N 01°12' E 103°36'612.7
2018-Apr-09 02:00N 01°09' E 103°42'510.1
2018-Apr-09 01:30N 01°10' E 103°47'3 6.8
2018-Apr-09 01:01N 01°11' E 103°50'611.1
2018-Apr-09 00:30N 01°14' E 103°55'611.6
2018-Apr-09 00:01N 01°15' E 104°00'8 0.1
2018-Apr-06 21:07N 01°19' E 104°07'0 1.3
2018-Apr-06 20:52N 01°19' E 104°07'0 0.5
2018-Apr-06 20:30N 01°19' E 104°07'9 6.9
2018-Apr-06 19:13N 01°15' E 103°59'211.0
2018-Apr-06 19:00N 01°14' E 103°57'3 5.0
2018-Apr-06 18:27N 01°14' E 103°54'1 1.4
2018-Apr-06 18:00N 01°15' E 103°54'0 0.0
2018-Apr-06 17:27N 01°15' E 103°54'0 0.0
2018-Apr-06 16:45N 01°15' E 103°54'0 0.0
2018-Apr-06 16:30N 01°15' E 103°54'0 0.1
2018-Apr-06 16:00N 01°15' E 103°54'0 0.0
2018-Apr-06 15:30N 01°15' E 103°54'0 0.1
2018-Apr-06 14:48N 01°15' E 103°54'0 0.0
2018-Apr-06 14:27N 01°15' E 103°54'0 0.0
2018-Apr-06 14:00N 01°15' E 103°54'0 0.0
2018-Apr-06 12:42N 01°15' E 103°54'0 0.1
2018-Apr-06 11:42N 01°15' E 103°54'0 0.2
2018-Apr-06 11:24N 01°15' E 103°54'0 0.1
2018-Apr-06 10:51N 01°15' E 103°54'0 0.1
2018-Apr-06 10:18N 01°15' E 103°54'0 0.0
2018-Apr-06 09:54N 01°15' E 103°54'  
Track history (hours):
 
Tides and Currents Weather Stations Pressure Air Temp Water Temp Dewpoint Dewpoint Depression Visibility Wind Speed Wind Dir Waves Ship Positions

Maersk Murotsu

Last reported at 2018-Apr-16 09:40 UTC. Time now 2018-Apr-22 18:16 UTC.
Position N 01°17' E 103°21'.

Length 183 m; draft 10.6 m.

Type: Tanker. MMSI: 355920000.

Date/timePositionNaut miles runAvg speedWind from/ knotsBaromVisibWave heightAir tempDewpointWater temp
2018-Apr-16 09:40N 01°17' E 103°21'313.6
2018-Apr-16 09:27N 01°15' E 103°23'5 9.6
2018-Apr-16 08:56N 01°10' E 103°21'4 6.8
2018-Apr-16 08:25N 01°09' E 103°17'  
2018-Apr-13 09:52N 01°10' E 103°21'0 0.0
2018-Apr-13 08:40N 01°10' E 103°21'0 0.1
2018-Apr-13 08:28N 01°10' E 103°21'0 0.2
2018-Apr-13 06:30N 01°10' E 103°21'5 8.5
2018-Apr-13 05:58N 01°15' E 103°20'  
2018-Apr-09 03:38N 01°16' E 103°22'213.4
2018-Apr-09 03:27N 01°15' E 103°24'613.5
2018-Apr-09 02:59N 01°13' E 103°30'613.0
2018-Apr-09 02:30N 01°12' E 103°36'612.7
2018-Apr-09 02:00N 01°09' E 103°42'510.1
2018-Apr-09 01:30N 01°10' E 103°47'3 6.8
2018-Apr-09 01:01N 01°11' E 103°50'611.1
2018-Apr-09 00:30N 01°14' E 103°55'611.6
2018-Apr-09 00:01N 01°15' E 104°00'8 0.1
2018-Apr-06 21:07N 01°19' E 104°07'0 1.3
2018-Apr-06 20:52N 01°19' E 104°07'0 0.5
2018-Apr-06 20:30N 01°19' E 104°07'9 6.9
2018-Apr-06 19:13N 01°15' E 103°59'211.0
2018-Apr-06 19:00N 01°14' E 103°57'3 5.0
2018-Apr-06 18:27N 01°14' E 103°54'1 1.4
2018-Apr-06 18:00N 01°15' E 103°54'0 0.0
2018-Apr-06 17:27N 01°15' E 103°54'0 0.0
2018-Apr-06 16:45N 01°15' E 103°54'0 0.0
2018-Apr-06 16:30N 01°15' E 103°54'0 0.1
2018-Apr-06 16:00N 01°15' E 103°54'0 0.0
2018-Apr-06 15:30N 01°15' E 103°54'0 0.1
2018-Apr-06 14:48N 01°15' E 103°54'0 0.0
2018-Apr-06 14:27N 01°15' E 103°54'0 0.0
2018-Apr-06 14:00N 01°15' E 103°54'0 0.0
2018-Apr-06 12:42N 01°15' E 103°54'0 0.1
2018-Apr-06 11:42N 01°15' E 103°54'0 0.2
2018-Apr-06 11:24N 01°15' E 103°54'0 0.1
2018-Apr-06 10:51N 01°15' E 103°54'0 0.1
2018-Apr-06 10:18N 01°15' E 103°54'0 0.0
2018-Apr-06 09:54N 01°15' E 103°54'  

Dump ship's entire track history